CSV9 weather

Public forecast

Using degrees Celsius for public forecast. Weather courtesy of forecast.io.

Closest aviation weather report (METAR) to St-Mathias Seaplane Base

Closest report is MontrĂ©al / Saint-Hubert Airport, 7.0 nm (12.9 km) W. Retrieved 2020/08/10 23:00 UTC (49 minutes ago):

CYHU 102300Z AUTO 16009KT 140V210 9SM FEW040 BKN055 27/21 A2987 RMK SLP116 DENSITY ALT 1400FT

Closest aviation forecast (TAF) to St-Mathias Seaplane Base

Closest forecast is MontrĂ©al / Saint-Hubert Airport, 7.0 nm (12.9 km) W. Retrieved 2020/08/10 18:42 UTC (5 hours ago):

TAF CYHU 101738Z 1018/1118 24012KT P6SM BKN040 FM102100 24012KT P6SM BKN040 TEMPO 1021/1102 P6SM -SHRA PROB30 1021/1102 VRB20G30KT 1SM +TSRA BR BKN020 OVC040CB FM110200 21008KT P6SM SCT040 FM111500 18012KT P6SM SCT060 RMK FCST BASED ON AUTO OBS NXT FCST BY 110000Z